sensor_id;sensor_type;location;lat;lon;timestamp;pressure;altitude;pressure_sealevel;temperature;humidity
68889;BME280;55930;47.412;8.790;2022-08-11T00:01:55;94914.94;;;15.62;67.91
68889;BME280;55930;47.412;8.790;2022-08-11T00:04:23;94904.00;;;15.60;68.08
68889;BME280;55930;47.412;8.790;2022-08-11T00:06:50;94920.53;;;15.64;68.10
68889;BME280;55930;47.412;8.790;2022-08-11T00:09:19;94913.47;;;15.56;69.02
68889;BME280;55930;47.412;8.790;2022-08-11T00:11:53;94916.16;;;15.56;69.61
68889;BME280;55930;47.412;8.790;2022-08-11T00:14:26;94917.84;;;15.59;68.90
68889;BME280;55930;47.412;8.790;2022-08-11T00:17:04;94914.47;;;15.64;67.71
68889;BME280;55930;47.412;8.790;2022-08-11T00:19:47;94914.69;;;15.66;68.64
68889;BME280;55930;47.412;8.790;2022-08-11T00:22:20;94908.13;;;15.73;68.05
68889;BME280;55930;47.412;8.790;2022-08-11T00:24:46;94906.22;;;15.79;67.04
68889;BME280;55930;47.412;8.790;2022-08-11T00:27:12;94904.03;;;15.77;66.74
68889;BME280;55930;47.412;8.790;2022-08-11T00:29:37;94906.97;;;15.85;65.81
68889;BME280;55930;47.412;8.790;2022-08-11T00:32:04;94911.09;;;15.86;66.21
68889;BME280;55930;47.412;8.790;2022-08-11T00:34:35;94913.31;;;15.93;66.10
68889;BME280;55930;47.412;8.790;2022-08-11T00:37:02;94913.56;;;15.95;65.32
68889;BME280;55930;47.412;8.790;2022-08-11T00:39:33;94917.22;;;16.03;64.17
68889;BME280;55930;47.412;8.790;2022-08-11T00:42:10;94913.78;;;15.97;65.31
68889;BME280;55930;47.412;8.790;2022-08-11T00:55:41;94907.66;;;15.63;67.76
68889;BME280;55930;47.412;8.790;2022-08-11T01:01:08;94905.75;;;15.80;65.64
68889;BME280;55930;47.412;8.790;2022-08-11T01:03:58;94897.47;;;15.89;65.15
68889;BME280;55930;47.412;8.790;2022-08-11T01:14:43;94903.63;;;15.30;70.17
68889;BME280;55930;47.412;8.790;2022-08-11T01:25:52;94901.69;;;15.37;69.40
68889;BME280;55930;47.412;8.790;2022-08-11T01:34:19;94903.66;;;15.42;69.24
68889;BME280;55930;47.412;8.790;2022-08-11T01:57:05;94901.41;;;14.75;73.85
68889;BME280;55930;47.412;8.790;2022-08-11T01:59:34;94899.47;;;14.76;72.97
68889;BME280;55930;47.412;8.790;2022-08-11T02:02:21;94897.22;;;14.69;73.85
68889;BME280;55930;47.412;8.790;2022-08-11T02:08:17;94895.25;;;14.64;73.63
68889;BME280;55930;47.412;8.790;2022-08-11T02:13:43;94893.91;;;14.42;75.75
68889;BME280;55930;47.412;8.790;2022-08-11T02:16:20;94898.59;;;14.53;75.88
68889;BME280;55930;47.412;8.790;2022-08-11T02:19:41;94894.72;;;14.54;76.45
68889;BME280;55930;47.412;8.790;2022-08-11T02:25:25;94895.06;;;14.36;76.44
68889;BME280;55930;47.412;8.790;2022-08-11T02:28:01;94895.22;;;14.27;76.47
68889;BME280;55930;47.412;8.790;2022-08-11T02:30:32;94890.06;;;14.17;77.36
68889;BME280;55930;47.412;8.790;2022-08-11T02:33:20;94890.75;;;14.12;78.66
68889;BME280;55930;47.412;8.790;2022-08-11T02:36:00;94893.75;;;14.26;76.87
68889;BME280;55930;47.412;8.790;2022-08-11T02:38:38;94884.94;;;14.14;77.74
68889;BME280;55930;47.412;8.790;2022-08-11T02:49:40;94886.31;;;14.04;77.34
68889;BME280;55930;47.412;8.790;2022-08-11T02:57:48;94893.88;;;13.79;78.04
68889;BME280;55930;47.412;8.790;2022-08-11T03:00:16;94900.84;;;13.77;78.08
68889;BME280;55930;47.412;8.790;2022-08-11T03:13:41;94895.00;;;13.47;78.39
68889;BME280;55930;47.412;8.790;2022-08-11T03:16:45;94891.19;;;13.13;81.46
68889;BME280;55930;47.412;8.790;2022-08-11T03:24:42;94885.84;;;13.33;80.27
68889;BME280;55930;47.412;8.790;2022-08-11T03:27:40;94883.47;;;13.35;80.30
68889;BME280;55930;47.412;8.790;2022-08-11T03:30:28;94882.94;;;13.31;80.60
68889;BME280;55930;47.412;8.790;2022-08-11T03:33:07;94886.25;;;13.26;81.12
68889;BME280;55930;47.412;8.790;2022-08-11T03:55:14;94895.78;;;13.33;83.35
68889;BME280;55930;47.412;8.790;2022-08-11T04:11:50;94890.66;;;14.01;78.26
68889;BME280;55930;47.412;8.790;2022-08-11T04:14:43;94890.44;;;14.05;77.92
68889;BME280;55930;47.412;8.790;2022-08-11T04:21:04;94888.59;;;14.16;77.15
68889;BME280;55930;47.412;8.790;2022-08-11T04:26:03;94891.53;;;13.93;79.31
68889;BME280;55930;47.412;8.790;2022-08-11T04:33:53;94893.13;;;13.79;81.04
68889;BME280;55930;47.412;8.790;2022-08-11T04:39:46;94894.91;;;13.62;81.93
68889;BME280;55930;47.412;8.790;2022-08-11T04:51:47;94904.47;;;14.00;79.99
68889;BME280;55930;47.412;8.790;2022-08-11T04:54:56;94910.63;;;14.11;80.34
68889;BME280;55930;47.412;8.790;2022-08-11T05:01:05;94902.53;;;14.63;77.15
68889;BME280;55930;47.412;8.790;2022-08-11T05:10:23;94907.19;;;15.11;73.83
68889;BME280;55930;47.412;8.790;2022-08-11T05:15:29;94909.94;;;15.27;73.65
68889;BME280;55930;47.412;8.790;2022-08-11T05:18:21;94905.81;;;15.32;71.91
68889;BME280;55930;47.412;8.790;2022-08-11T05:21:10;94905.38;;;15.50;71.37
68889;BME280;55930;47.412;8.790;2022-08-11T05:24:02;94897.69;;;15.75;70.77
68889;BME280;55930;47.412;8.790;2022-08-11T05:26:50;94895.88;;;15.38;72.40
68889;BME280;55930;47.412;8.790;2022-08-11T05:29:41;94896.84;;;15.41;72.38
68889;BME280;55930;47.412;8.790;2022-08-11T05:32:26;94901.13;;;15.86;70.60
68889;BME280;55930;47.412;8.790;2022-08-11T05:35:14;94900.88;;;15.90;70.61
68889;BME280;55930;47.412;8.790;2022-08-11T05:37:46;94899.63;;;15.74;72.20
68889;BME280;55930;47.412;8.790;2022-08-11T05:40:30;94905.28;;;16.15;71.52
68889;BME280;55930;47.412;8.790;2022-08-11T05:43:15;94902.38;;;16.46;69.65
68889;BME280;55930;47.412;8.790;2022-08-11T05:46:02;94906.28;;;16.68;69.06
68889;BME280;55930;47.412;8.790;2022-08-11T05:48:48;94900.63;;;16.88;68.15
68889;BME280;55930;47.412;8.790;2022-08-11T05:51:34;94911.84;;;16.81;67.78
68889;BME280;55930;47.412;8.790;2022-08-11T05:54:25;94912.50;;;17.15;66.19
68889;BME280;55930;47.412;8.790;2022-08-11T05:57:18;94914.84;;;17.41;65.78
68889;BME280;55930;47.412;8.790;2022-08-11T05:59:46;94916.94;;;17.70;62.46
68889;BME280;55930;47.412;8.790;2022-08-11T06:02:12;94915.88;;;17.84;63.32
68889;BME280;55930;47.412;8.790;2022-08-11T06:04:38;94922.66;;;17.91;63.90
68889;BME280;55930;47.412;8.790;2022-08-11T06:07:06;94919.53;;;17.87;64.04
68889;BME280;55930;47.412;8.790;2022-08-11T06:09:39;94921.97;;;18.20;63.60
68889;BME280;55930;47.412;8.790;2022-08-11T06:14:50;94928.09;;;18.56;61.47
68889;BME280;55930;47.412;8.790;2022-08-11T06:17:25;94930.50;;;18.90;59.68
68889;BME280;55930;47.412;8.790;2022-08-11T06:19:58;94925.69;;;19.07;57.77
68889;BME280;55930;47.412;8.790;2022-08-11T06:22:24;94933.03;;;19.25;57.66
68889;BME280;55930;47.412;8.790;2022-08-11T06:24:55;94926.72;;;19.23;56.88
68889;BME280;55930;47.412;8.790;2022-08-11T06:27:21;94937.38;;;19.09;57.80
68889;BME280;55930;47.412;8.790;2022-08-11T06:29:51;94931.41;;;19.41;56.89
68889;BME280;55930;47.412;8.790;2022-08-11T06:32:24;94931.66;;;19.19;55.77
68889;BME280;55930;47.412;8.790;2022-08-11T06:35:21;94923.69;;;19.75;55.58
68889;BME280;55930;47.412;8.790;2022-08-11T06:45:47;94925.09;;;20.77;54.90
68889;BME280;55930;47.412;8.790;2022-08-11T06:48:17;94928.00;;;20.79;53.02
68889;BME280;55930;47.412;8.790;2022-08-11T06:50:52;94922.94;;;21.02;53.64
68889;BME280;55930;47.412;8.790;2022-08-11T06:53:46;94923.66;;;21.16;52.29
68889;BME280;55930;47.412;8.790;2022-08-11T06:56:13;94925.38;;;21.19;53.14
68889;BME280;55930;47.412;8.790;2022-08-11T06:59:01;94930.03;;;21.31;51.77
68889;BME280;55930;47.412;8.790;2022-08-11T07:04:38;94931.78;;;21.55;51.58
68889;BME280;55930;47.412;8.790;2022-08-11T07:13:25;94926.03;;;22.19;49.98
68889;BME280;55930;47.412;8.790;2022-08-11T07:16:17;94929.94;;;22.31;50.25
68889;BME280;55930;47.412;8.790;2022-08-11T07:18:47;94929.88;;;22.44;49.82
68889;BME280;55930;47.412;8.790;2022-08-11T07:21:33;94939.44;;;22.66;47.91
68889;BME280;55930;47.412;8.790;2022-08-11T07:24:29;94928.81;;;22.47;49.64
68889;BME280;55930;47.412;8.790;2022-08-11T07:27:18;94933.88;;;22.93;46.76
68889;BME280;55930;47.412;8.790;2022-08-11T07:30:08;94924.53;;;22.73;48.55
68889;BME280;55930;47.412;8.790;2022-08-11T07:32:47;94927.13;;;23.07;47.04
68889;BME280;55930;47.412;8.790;2022-08-11T07:35:21;94926.03;;;23.67;45.74
68889;BME280;55930;47.412;8.790;2022-08-11T07:37:56;94927.84;;;23.72;45.12
68889;BME280;55930;47.412;8.790;2022-08-11T07:40:24;94923.25;;;23.51;45.71
68889;BME280;55930;47.412;8.790;2022-08-11T07:42:51;94929.63;;;23.61;45.89
68889;BME280;55930;47.412;8.790;2022-08-11T07:45:21;94925.88;;;24.23;45.32
68889;BME280;55930;47.412;8.790;2022-08-11T07:48:10;94924.06;;;24.33;44.98
68889;BME280;55930;47.412;8.790;2022-08-11T07:50:55;94930.56;;;24.23;43.64
68889;BME280;55930;47.412;8.790;2022-08-11T07:53:40;94932.56;;;24.45;42.99
68889;BME280;55930;47.412;8.790;2022-08-11T07:56:10;94929.06;;;24.07;45.03
68889;BME280;55930;47.412;8.790;2022-08-11T07:58:40;94935.66;;;24.42;44.45
68889;BME280;55930;47.412;8.790;2022-08-11T08:01:26;94929.47;;;25.32;42.16
68889;BME280;55930;47.412;8.790;2022-08-11T08:04:13;94931.91;;;25.76;41.76
68889;BME280;55930;47.412;8.790;2022-08-11T08:06:58;94933.44;;;26.59;39.21
68889;BME280;55930;47.412;8.790;2022-08-11T08:09:44;94929.25;;;27.08;39.94
68889;BME280;55930;47.412;8.790;2022-08-11T08:12:29;94924.31;;;27.14;38.88
68889;BME280;55930;47.412;8.790;2022-08-11T08:15:14;94930.72;;;27.09;38.92
68889;BME280;55930;47.412;8.790;2022-08-11T08:18:03;94929.88;;;27.58;36.14
68889;BME280;55930;47.412;8.790;2022-08-11T08:20:34;94928.72;;;28.22;36.70
68889;BME280;55930;47.412;8.790;2022-08-11T08:23:03;94929.63;;;28.34;36.85
68889;BME280;55930;47.412;8.790;2022-08-11T08:25:35;94926.63;;;27.86;35.66
68889;BME280;55930;47.412;8.790;2022-08-11T08:28:06;94933.53;;;28.68;36.58
68889;BME280;55930;47.412;8.790;2022-08-11T08:30:33;94930.53;;;29.29;35.50
68889;BME280;55930;47.412;8.790;2022-08-11T08:33:22;94937.03;;;29.82;34.54
68889;BME280;55930;47.412;8.790;2022-08-11T08:35:54;94927.50;;;30.12;31.86
68889;BME280;55930;47.412;8.790;2022-08-11T08:38:52;94930.56;;;29.77;34.18
68889;BME280;55930;47.412;8.790;2022-08-11T08:41:26;94927.19;;;29.30;34.38
68889;BME280;55930;47.412;8.790;2022-08-11T08:43:54;94938.16;;;28.38;34.70
68889;BME280;55930;47.412;8.790;2022-08-11T08:46:26;94924.50;;;27.67;36.72
68889;BME280;55930;47.412;8.790;2022-08-11T08:48:56;94929.06;;;28.09;35.94
68889;BME280;55930;47.412;8.790;2022-08-11T08:51:26;94925.22;;;28.39;37.60
68889;BME280;55930;47.412;8.790;2022-08-11T08:54:06;94926.16;;;28.97;34.36
68889;BME280;55930;47.412;8.790;2022-08-11T08:56:34;94930.94;;;29.25;34.98
68889;BME280;55930;47.412;8.790;2022-08-11T08:59:02;94928.06;;;30.60;34.05
68889;BME280;55930;47.412;8.790;2022-08-11T09:01:32;94932.19;;;30.80;30.60
68889;BME280;55930;47.412;8.790;2022-08-11T09:04:00;94926.28;;;32.14;30.58
68889;BME280;55930;47.412;8.790;2022-08-11T09:06:30;94923.72;;;31.62;30.73
68889;BME280;55930;47.412;8.790;2022-08-11T09:08:59;94926.66;;;32.08;30.13
68889;BME280;55930;47.412;8.790;2022-08-11T09:11:27;94929.47;;;32.32;30.17
68889;BME280;55930;47.412;8.790;2022-08-11T09:14:11;94925.44;;;32.11;31.30
68889;BME280;55930;47.412;8.790;2022-08-11T09:16:37;94931.63;;;33.03;28.71
68889;BME280;55930;47.412;8.790;2022-08-11T09:19:04;94926.09;;;32.33;30.95
68889;BME280;55930;47.412;8.790;2022-08-11T09:21:33;94928.69;;;32.08;30.43
68889;BME280;55930;47.412;8.790;2022-08-11T09:24:00;94927.16;;;33.33;29.11
68889;BME280;55930;47.412;8.790;2022-08-11T09:26:44;94924.44;;;32.51;28.29
68889;BME280;55930;47.412;8.790;2022-08-11T09:29:27;94927.44;;;34.38;26.05
68889;BME280;55930;47.412;8.790;2022-08-11T09:31:54;94932.03;;;33.46;28.17
68889;BME280;55930;47.412;8.790;2022-08-11T09:34:20;94917.59;;;34.74;27.69
68889;BME280;55930;47.412;8.790;2022-08-11T09:36:46;94928.66;;;33.59;27.44
68889;BME280;55930;47.412;8.790;2022-08-11T09:39:35;94924.41;;;34.46;27.11
68889;BME280;55930;47.412;8.790;2022-08-11T09:42:20;94916.91;;;34.87;25.99
68889;BME280;55930;47.412;8.790;2022-08-11T09:44:47;94916.78;;;33.94;26.58
68889;BME280;55930;47.412;8.790;2022-08-11T09:47:21;94914.84;;;35.02;26.38
68889;BME280;55930;47.412;8.790;2022-08-11T09:49:48;94916.72;;;34.31;26.68
68889;BME280;55930;47.412;8.790;2022-08-11T09:52:16;94917.53;;;34.33;27.39
68889;BME280;55930;47.412;8.790;2022-08-11T09:54:46;94914.03;;;35.26;27.47
68889;BME280;55930;47.412;8.790;2022-08-11T09:57:17;94913.22;;;34.83;25.35
68889;BME280;55930;47.412;8.790;2022-08-11T10:00:03;94916.19;;;35.28;25.74
68889;BME280;55930;47.412;8.790;2022-08-11T10:02:29;94910.22;;;35.20;26.92
68889;BME280;55930;47.412;8.790;2022-08-11T10:04:56;94912.59;;;34.98;27.33
68889;BME280;55930;47.412;8.790;2022-08-11T10:07:46;94904.50;;;35.43;26.22
68889;BME280;55930;47.412;8.790;2022-08-11T10:10:17;94908.31;;;35.09;26.22
68889;BME280;55930;47.412;8.790;2022-08-11T10:13:00;94902.59;;;34.77;27.41
68889;BME280;55930;47.412;8.790;2022-08-11T10:15:29;94903.19;;;35.17;26.64
68889;BME280;55930;47.412;8.790;2022-08-11T10:20:54;94899.53;;;33.93;28.30
68889;BME280;55930;47.412;8.790;2022-08-11T10:23:21;94894.53;;;33.16;28.91
68889;BME280;55930;47.412;8.790;2022-08-11T10:26:06;94906.19;;;33.51;28.74
68889;BME280;55930;47.412;8.790;2022-08-11T10:28:52;94902.78;;;33.16;28.90
68889;BME280;55930;47.412;8.790;2022-08-11T10:31:19;94890.28;;;32.66;28.88
68889;BME280;55930;47.412;8.790;2022-08-11T10:34:07;94897.97;;;32.79;28.94
68889;BME280;55930;47.412;8.790;2022-08-11T10:36:37;94893.56;;;29.47;32.88
68889;BME280;55930;47.412;8.790;2022-08-11T10:39:18;94899.31;;;29.71;33.42
68889;BME280;55930;47.412;8.790;2022-08-11T10:41:45;94893.94;;;30.01;33.58
68889;BME280;55930;47.412;8.790;2022-08-11T10:44:44;94892.50;;;30.51;31.34
68889;BME280;55930;47.412;8.790;2022-08-11T10:47:11;94888.34;;;28.93;35.80
68889;BME280;55930;47.412;8.790;2022-08-11T10:49:56;94896.44;;;29.20;33.85
68889;BME280;55930;47.412;8.790;2022-08-11T10:52:46;94887.06;;;29.72;36.23
68889;BME280;55930;47.412;8.790;2022-08-11T10:55:32;94893.59;;;28.72;34.05
68889;BME280;55930;47.412;8.790;2022-08-11T10:58:16;94891.53;;;29.28;35.59
68889;BME280;55930;47.412;8.790;2022-08-11T11:01:01;94892.38;;;27.93;36.27
68889;BME280;55930;47.412;8.790;2022-08-11T11:03:29;94892.47;;;28.12;37.31
68889;BME280;55930;47.412;8.790;2022-08-11T11:06:02;94891.06;;;28.47;34.92
68889;BME280;55930;47.412;8.790;2022-08-11T11:08:34;94885.25;;;28.34;36.39
68889;BME280;55930;47.412;8.790;2022-08-11T11:11:34;94895.97;;;28.95;35.07
68889;BME280;55930;47.412;8.790;2022-08-11T11:14:21;94890.09;;;29.66;33.93
68889;BME280;55930;47.412;8.790;2022-08-11T11:17:05;94902.69;;;28.84;36.23
68889;BME280;55930;47.412;8.790;2022-08-11T11:19:42;94901.41;;;27.68;37.24
68889;BME280;55930;47.412;8.790;2022-08-11T11:22:09;94905.06;;;27.80;37.04
68889;BME280;55930;47.412;8.790;2022-08-11T11:34:11;94909.34;;;28.54;36.58
68889;BME280;55930;47.412;8.790;2022-08-11T11:39:10;94898.66;;;27.86;36.96
68889;BME280;55930;47.412;8.790;2022-08-11T11:41:36;94897.59;;;27.47;37.85
68889;BME280;55930;47.412;8.790;2022-08-11T11:44:03;94890.41;;;28.30;35.34
68889;BME280;55930;47.412;8.790;2022-08-11T11:46:32;94885.22;;;27.97;36.12
68889;BME280;55930;47.412;8.790;2022-08-11T11:48:58;94881.47;;;28.56;37.22
68889;BME280;55930;47.412;8.790;2022-08-11T11:51:31;94874.69;;;28.93;35.10
68889;BME280;55930;47.412;8.790;2022-08-11T11:53:59;94875.72;;;29.46;34.23
68889;BME280;55930;47.412;8.790;2022-08-11T11:56:27;94880.31;;;29.24;36.69
68889;BME280;55930;47.412;8.790;2022-08-11T11:58:54;94876.28;;;29.54;35.25
68889;BME280;55930;47.412;8.790;2022-08-11T12:01:38;94878.88;;;29.23;35.37
68889;BME280;55930;47.412;8.790;2022-08-11T12:04:04;94876.44;;;29.27;36.80
68889;BME280;55930;47.412;8.790;2022-08-11T12:06:35;94876.28;;;29.16;34.84
68889;BME280;55930;47.412;8.790;2022-08-11T12:09:02;94879.41;;;28.93;36.70
68889;BME280;55930;47.412;8.790;2022-08-11T12:11:28;94870.34;;;28.81;35.93
68889;BME280;55930;47.412;8.790;2022-08-11T12:14:16;94867.78;;;29.02;36.95
68889;BME280;55930;47.412;8.790;2022-08-11T12:16:43;94865.09;;;29.50;34.48
68889;BME280;55930;47.412;8.790;2022-08-11T12:19:17;94862.06;;;29.37;36.08
68889;BME280;55930;47.412;8.790;2022-08-11T12:21:46;94867.97;;;29.43;36.92
68889;BME280;55930;47.412;8.790;2022-08-11T12:24:31;94856.84;;;29.69;35.12
68889;BME280;55930;47.412;8.790;2022-08-11T12:27:17;94848.81;;;29.23;36.60
68889;BME280;55930;47.412;8.790;2022-08-11T12:29:49;94844.72;;;29.82;35.00
68889;BME280;55930;47.412;8.790;2022-08-11T12:32:16;94842.97;;;29.87;33.27
68889;BME280;55930;47.412;8.790;2022-08-11T12:34:43;94839.19;;;29.51;35.87
68889;BME280;55930;47.412;8.790;2022-08-11T12:37:12;94838.69;;;29.74;35.31
68889;BME280;55930;47.412;8.790;2022-08-11T12:39:46;94825.94;;;28.80;34.79
68889;BME280;55930;47.412;8.790;2022-08-11T12:42:34;94832.69;;;29.08;34.64
68889;BME280;55930;47.412;8.790;2022-08-11T12:45:24;94826.66;;;29.29;34.38
68889;BME280;55930;47.412;8.790;2022-08-11T12:48:00;94827.84;;;30.05;35.18
68889;BME280;55930;47.412;8.790;2022-08-11T12:50:49;94825.66;;;30.03;34.44
68889;BME280;55930;47.412;8.790;2022-08-11T12:53:38;94819.31;;;29.41;35.34
68889;BME280;55930;47.412;8.790;2022-08-11T12:56:09;94823.69;;;29.94;34.52
68889;BME280;55930;47.412;8.790;2022-08-11T12:58:55;94814.63;;;29.82;34.15
68889;BME280;55930;47.412;8.790;2022-08-11T13:01:40;94811.09;;;29.31;32.59
68889;BME280;55930;47.412;8.790;2022-08-11T13:04:25;94810.69;;;28.97;33.78
68889;BME280;55930;47.412;8.790;2022-08-11T13:07:11;94814.91;;;28.51;33.47
68889;BME280;55930;47.412;8.790;2022-08-11T13:09:38;94806.38;;;29.03;35.30
68889;BME280;55930;47.412;8.790;2022-08-11T13:12:07;94804.94;;;29.12;34.78
68889;BME280;55930;47.412;8.790;2022-08-11T13:14:53;94799.63;;;29.93;34.34
68889;BME280;55930;47.412;8.790;2022-08-11T13:17:20;94804.91;;;29.60;35.74
68889;BME280;55930;47.412;8.790;2022-08-11T13:19:46;94805.03;;;30.12;33.71
68889;BME280;55930;47.412;8.790;2022-08-11T13:22:17;94807.75;;;30.53;34.17
68889;BME280;55930;47.412;8.790;2022-08-11T13:24:43;94800.06;;;29.20;33.00
68889;BME280;55930;47.412;8.790;2022-08-11T13:27:09;94796.31;;;28.86;32.77
68889;BME280;55930;47.412;8.790;2022-08-11T13:29:40;94792.69;;;28.65;34.69
68889;BME280;55930;47.412;8.790;2022-08-11T13:32:09;94792.84;;;29.15;34.07
68889;BME280;55930;47.412;8.790;2022-08-11T13:34:35;94788.41;;;29.89;35.08
68889;BME280;55930;47.412;8.790;2022-08-11T13:37:06;94790.56;;;30.31;33.03
68889;BME280;55930;47.412;8.790;2022-08-11T13:39:34;94784.44;;;28.45;33.78
68889;BME280;55930;47.412;8.790;2022-08-11T13:42:03;94784.34;;;29.40;33.78
68889;BME280;55930;47.412;8.790;2022-08-11T13:44:34;94784.53;;;29.82;34.51
68889;BME280;55930;47.412;8.790;2022-08-11T13:47:05;94778.91;;;29.99;33.58
68889;BME280;55930;47.412;8.790;2022-08-11T13:49:34;94781.59;;;30.61;33.89
68889;BME280;55930;47.412;8.790;2022-08-11T13:52:00;94776.00;;;29.97;34.15
68889;BME280;55930;47.412;8.790;2022-08-11T13:54:29;94775.16;;;29.95;33.40
68889;BME280;55930;47.412;8.790;2022-08-11T13:56:58;94765.06;;;29.97;32.86
68889;BME280;55930;47.412;8.790;2022-08-11T13:59:25;94772.72;;;29.20;34.02
68889;BME280;55930;47.412;8.790;2022-08-11T14:01:54;94770.72;;;30.21;31.90
68889;BME280;55930;47.412;8.790;2022-08-11T14:07:10;94761.06;;;29.39;33.55
68889;BME280;55930;47.412;8.790;2022-08-11T14:09:40;94761.53;;;30.16;33.64
68889;BME280;55930;47.412;8.790;2022-08-11T14:12:26;94762.97;;;29.77;33.45
68889;BME280;55930;47.412;8.790;2022-08-11T14:15:17;94759.75;;;29.90;33.40
68889;BME280;55930;47.412;8.790;2022-08-11T14:17:47;94757.75;;;29.40;34.66
68889;BME280;55930;47.412;8.790;2022-08-11T14:20:19;94762.44;;;29.59;32.50
68889;BME280;55930;47.412;8.790;2022-08-11T14:22:48;94752.47;;;29.73;33.42
68889;BME280;55930;47.412;8.790;2022-08-11T14:25:15;94757.47;;;29.36;33.05
68889;BME280;55930;47.412;8.790;2022-08-11T14:27:43;94755.31;;;29.15;33.20
68889;BME280;55930;47.412;8.790;2022-08-11T14:30:10;94750.69;;;29.27;34.79
68889;BME280;55930;47.412;8.790;2022-08-11T14:32:56;94749.75;;;29.63;34.27
68889;BME280;55930;47.412;8.790;2022-08-11T14:35:24;94742.41;;;28.97;34.40
68889;BME280;55930;47.412;8.790;2022-08-11T14:37:54;94745.94;;;29.28;32.89
68889;BME280;55930;47.412;8.790;2022-08-11T14:40:22;94745.97;;;29.18;33.94
68889;BME280;55930;47.412;8.790;2022-08-11T14:43:06;94739.63;;;29.45;33.76
68889;BME280;55930;47.412;8.790;2022-08-11T14:45:50;94740.50;;;29.28;34.31
68889;BME280;55930;47.412;8.790;2022-08-11T14:48:35;94736.34;;;29.77;33.71
68889;BME280;55930;47.412;8.790;2022-08-11T14:51:04;94740.19;;;29.43;33.09
68889;BME280;55930;47.412;8.790;2022-08-11T14:53:30;94737.63;;;29.16;34.26
68889;BME280;55930;47.412;8.790;2022-08-11T14:55:56;94729.28;;;29.74;33.45
68889;BME280;55930;47.412;8.790;2022-08-11T14:58:42;94733.50;;;28.96;33.99
68889;BME280;55930;47.412;8.790;2022-08-11T15:01:07;94741.72;;;29.56;33.97
68889;BME280;55930;47.412;8.790;2022-08-11T15:03:56;94729.22;;;29.93;34.11
68889;BME280;55930;47.412;8.790;2022-08-11T15:06:26;94735.81;;;29.59;33.18
68889;BME280;55930;47.412;8.790;2022-08-11T15:08:53;94742.50;;;29.37;35.27
68889;BME280;55930;47.412;8.790;2022-08-11T15:11:21;94729.25;;;29.43;34.16
68889;BME280;55930;47.412;8.790;2022-08-11T15:14:08;94734.59;;;29.22;34.02
68889;BME280;55930;47.412;8.790;2022-08-11T15:16:36;94730.59;;;28.94;36.28
68889;BME280;55930;47.412;8.790;2022-08-11T15:19:24;94729.56;;;29.28;34.28
68889;BME280;55930;47.412;8.790;2022-08-11T15:21:50;94727.72;;;28.92;34.00
68889;BME280;55930;47.412;8.790;2022-08-11T15:24:34;94720.84;;;28.81;34.13
68889;BME280;55930;47.412;8.790;2022-08-11T15:27:12;94730.84;;;29.27;35.19
68889;BME280;55930;47.412;8.790;2022-08-11T15:29:58;94723.84;;;29.05;33.93
68889;BME280;55930;47.412;8.790;2022-08-11T15:32:44;94727.09;;;27.80;35.18
68889;BME280;55930;47.412;8.790;2022-08-11T15:35:29;94719.78;;;28.58;34.90
68889;BME280;55930;47.412;8.790;2022-08-11T15:38:15;94719.06;;;28.67;34.18
68889;BME280;55930;47.412;8.790;2022-08-11T15:40:43;94713.34;;;29.01;34.40
68889;BME280;55930;47.412;8.790;2022-08-11T15:43:48;94711.13;;;29.38;32.38
68889;BME280;55930;47.412;8.790;2022-08-11T15:46:40;94700.47;;;29.83;33.63
68889;BME280;55930;47.412;8.790;2022-08-11T15:49:14;94700.91;;;29.79;32.25
68889;BME280;55930;47.412;8.790;2022-08-11T15:51:49;94699.84;;;28.84;34.25
68889;BME280;55930;47.412;8.790;2022-08-11T15:54:25;94705.47;;;28.76;33.85
68889;BME280;55930;47.412;8.790;2022-08-11T15:56:54;94709.72;;;28.50;35.44
68889;BME280;55930;47.412;8.790;2022-08-11T15:59:20;94696.34;;;28.26;35.41
68889;BME280;55930;47.412;8.790;2022-08-11T16:02:09;94702.47;;;28.07;35.98
68889;BME280;55930;47.412;8.790;2022-08-11T16:04:55;94705.63;;;27.57;35.97
68889;BME280;55930;47.412;8.790;2022-08-11T16:07:29;94701.59;;;28.04;36.08
68889;BME280;55930;47.412;8.790;2022-08-11T16:09:59;94703.16;;;27.98;36.12
68889;BME280;55930;47.412;8.790;2022-08-11T16:12:37;94706.09;;;27.73;35.52
68889;BME280;55930;47.412;8.790;2022-08-11T16:15:05;94701.97;;;27.82;35.84
68889;BME280;55930;47.412;8.790;2022-08-11T16:17:56;94699.53;;;27.49;35.79
68889;BME280;55930;47.412;8.790;2022-08-11T16:20:25;94695.19;;;27.10;36.50
68889;BME280;55930;47.412;8.790;2022-08-11T16:22:56;94697.69;;;27.52;36.95
68889;BME280;55930;47.412;8.790;2022-08-11T16:25:23;94697.84;;;27.27;36.51
68889;BME280;55930;47.412;8.790;2022-08-11T16:27:53;94689.53;;;27.25;39.04
68889;BME280;55930;47.412;8.790;2022-08-11T16:30:19;94692.34;;;27.44;39.97
68889;BME280;55930;47.412;8.790;2022-08-11T16:32:48;94687.66;;;26.83;37.74
68889;BME280;55930;47.412;8.790;2022-08-11T16:35:23;94683.28;;;27.15;37.53
68889;BME280;55930;47.412;8.790;2022-08-11T16:38:08;94689.88;;;27.12;39.27
68889;BME280;55930;47.412;8.790;2022-08-11T16:40:55;94677.81;;;26.88;38.27
68889;BME280;55930;47.412;8.790;2022-08-11T16:43:24;94676.78;;;26.83;38.93
68889;BME280;55930;47.412;8.790;2022-08-11T16:46:11;94671.50;;;26.85;39.57
68889;BME280;55930;47.412;8.790;2022-08-11T16:48:57;94677.09;;;26.87;37.82
68889;BME280;55930;47.412;8.790;2022-08-11T16:51:25;94682.19;;;26.56;39.06
68889;BME280;55930;47.412;8.790;2022-08-11T16:53:50;94678.97;;;26.67;40.38
68889;BME280;55930;47.412;8.790;2022-08-11T16:56:20;94675.31;;;26.55;38.98
68889;BME280;55930;47.412;8.790;2022-08-11T16:58:53;94678.09;;;26.48;39.86
68889;BME280;55930;47.412;8.790;2022-08-11T17:01:37;94675.59;;;26.25;38.21
68889;BME280;55930;47.412;8.790;2022-08-11T17:04:10;94676.50;;;26.27;40.73
68889;BME280;55930;47.412;8.790;2022-08-11T17:06:56;94672.59;;;25.96;40.23
68889;BME280;55930;47.412;8.790;2022-08-11T17:09:41;94674.31;;;26.09;40.19
68889;BME280;55930;47.412;8.790;2022-08-11T17:12:30;94666.97;;;25.77;39.25